4IL9 weather

Unzicker Airport
Benson, Illinois, United States

Public forecast

Using degrees Fahrenheit for public forecast. Weather courtesy of forecast.io.

Closest aviation weather report (METAR) to Unzicker Airport

Closest report is Marshall County Airport, 16.7 nm (30.9 km) NW. Retrieved 2019/12/11 08:35 UTC (0 seconds ago):

KC75 110835Z AUTO 23003KT 10SM OVC110 M09/M12 A3036 RMK AO2 T10861118

Closest aviation forecast (TAF) to Unzicker Airport

Closest forecast is Central Illinois Regional Airport at Bloomington-Normal, 23.0 nm (42.6 km) SSE. Retrieved 2019/12/11 06:22 UTC (2 hours ago):

TAF KBMI 110520Z 1106/1206 27008KT P6SM SCT040 FM111100 23005KT P6SM VCSH BKN040 TEMPO 1112/1116 5SM -SN FM111900 VRB04KT P6SM FEW100